createdAt,value
2018-08-03T00:04:19.081Z,14.1
2018-08-03T00:10:14.109Z,13.54
2018-08-03T00:16:09.118Z,13.27
2018-08-03T00:22:04.187Z,13.2
2018-08-03T00:27:59.090Z,11.58
2018-08-03T00:33:54.103Z,12.42
2018-08-03T00:39:49.131Z,12.57
2018-08-03T00:45:44.160Z,12.39
2018-08-03T00:51:39.072Z,12.27
2018-08-03T00:57:34.099Z,12.66
2018-08-03T01:03:29.111Z,12.71
2018-08-03T01:09:24.113Z,12.52
2018-08-03T01:15:19.110Z,11.82
2018-08-03T01:21:14.140Z,12.45
2018-08-03T01:27:09.166Z,12.27
2018-08-03T01:33:04.197Z,10.48
2018-08-03T01:38:59.189Z,10.38
2018-08-03T01:44:54.143Z,11.37
2018-08-03T01:50:49.225Z,15.44
2018-08-03T01:56:44.241Z,16.06
2018-08-03T02:02:39.152Z,14.02
2018-08-03T02:08:34.169Z,14.04
2018-08-03T02:14:29.230Z,13.11
2018-08-03T02:20:24.186Z,12.88
2018-08-03T02:26:19.183Z,11.59
2018-08-03T02:32:14.205Z,11.99
2018-08-03T02:38:09.222Z,10.83
2018-08-03T02:44:04.171Z,11.05
2018-08-03T02:49:59.225Z,10.97
2018-08-03T02:55:54.284Z,11.36
2018-08-03T03:01:49.177Z,10.26
2018-08-03T03:07:44.205Z,11.2
2018-08-03T03:13:39.326Z,10.85
2018-08-03T03:19:34.276Z,10.08
2018-08-03T03:25:29.191Z,10.05
2018-08-03T03:31:24.284Z,10.06
2018-08-03T03:37:19.247Z,10.34
2018-08-03T03:43:14.251Z,10.37
2018-08-03T03:49:09.256Z,8.95
2018-08-03T03:55:04.262Z,9.42
2018-08-03T04:00:59.305Z,9.04
2018-08-03T04:06:54.245Z,8.83
2018-08-03T04:12:49.249Z,8.61
2018-08-03T04:18:44.315Z,9.1
2018-08-03T04:24:39.272Z,9.08
2018-08-03T04:30:34.287Z,9.27
2018-08-03T04:36:29.334Z,9.16
2018-08-03T04:42:24.361Z,8.86
2018-08-03T04:48:19.308Z,8.34
2018-08-03T04:54:14.345Z,8.99
2018-08-03T05:00:09.317Z,8.11
2018-08-03T05:06:04.342Z,7.61
2018-08-03T05:11:59.389Z,7.74
2018-08-03T05:17:54.302Z,7.63
2018-08-03T05:23:49.383Z,7.8
2018-08-03T05:29:44.376Z,8.22
2018-08-03T05:35:39.314Z,7.72
2018-08-03T05:41:34.337Z,7.62
2018-08-03T05:47:29.342Z,7.3
2018-08-03T05:53:24.320Z,6.62
2018-08-03T05:59:19.346Z,6.72
2018-08-03T06:05:14.334Z,7.65
2018-08-03T06:11:09.364Z,7.78
2018-08-03T06:17:04.357Z,8.38
2018-08-03T06:22:59.365Z,6.93
2018-08-03T06:28:54.382Z,6.65
2018-08-03T06:34:49.417Z,7.04
2018-08-03T06:40:44.367Z,7.13
2018-08-03T06:46:39.401Z,6.48
2018-08-03T06:52:34.454Z,6.97
2018-08-03T06:58:29.444Z,7.6
2018-08-03T07:04:24.465Z,7.29
2018-08-03T07:10:19.496Z,7.43
2018-08-03T07:16:14.393Z,6.71
2018-08-03T07:22:09.444Z,7.33
2018-08-03T07:28:04.395Z,8.2
2018-08-03T07:33:59.411Z,12.73
2018-08-03T07:39:54.504Z,8.15
2018-08-03T07:45:49.444Z,6.61
2018-08-03T07:51:44.422Z,6.09
2018-08-03T07:57:39.446Z,6.08
2018-08-03T08:03:34.494Z,6.86
2018-08-03T08:09:29.444Z,6.1
2018-08-03T08:15:24.476Z,6.21
2018-08-03T08:21:19.448Z,5.27
2018-08-03T08:27:14.475Z,5.72
2018-08-03T08:33:09.487Z,5.01
2018-08-03T08:39:04.504Z,4.81
2018-08-03T08:44:59.522Z,5.09
2018-08-03T08:50:54.499Z,4.58
2018-08-03T08:56:49.489Z,4.75
2018-08-03T09:02:44.552Z,4.6
2018-08-03T09:08:39.489Z,4.26
2018-08-03T09:14:34.505Z,4.6
2018-08-03T09:20:29.551Z,4.2
2018-08-03T09:26:24.523Z,4.4
2018-08-03T09:32:19.524Z,4.67
2018-08-03T09:38:14.521Z,4.28
2018-08-03T09:44:09.579Z,4.76
2018-08-03T09:50:04.561Z,4.26
2018-08-03T09:55:59.551Z,4.67
2018-08-03T10:01:54.548Z,4.78
2018-08-03T10:07:49.552Z,4.8
2018-08-03T10:13:44.603Z,4.97
2018-08-03T10:19:39.611Z,5.18
2018-08-03T10:25:34.598Z,5.05
2018-08-03T10:31:29.571Z,4.06
2018-08-03T10:37:24.607Z,4.81
2018-08-03T10:43:19.573Z,4.82
2018-08-03T10:49:14.580Z,4.47
2018-08-03T10:55:09.653Z,4.66
2018-08-03T11:01:04.602Z,4.75
2018-08-03T11:06:59.624Z,4.55
2018-08-03T11:12:54.662Z,4.45
2018-08-03T11:18:49.674Z,4.07
2018-08-03T11:24:44.692Z,3.88
2018-08-03T11:30:39.638Z,3.85
2018-08-03T11:36:34.643Z,4.02
2018-08-03T11:42:29.677Z,3.7
2018-08-03T11:48:24.638Z,3.9
2018-08-03T11:54:19.702Z,3.6
2018-08-03T12:00:14.694Z,3.21
2018-08-03T12:06:09.691Z,3.62
2018-08-03T12:12:04.751Z,3.63
2018-08-03T12:17:59.701Z,5.94
2018-08-03T12:23:54.767Z,3.55
2018-08-03T12:29:49.670Z,3.48
2018-08-03T12:35:44.688Z,3.72
2018-08-03T12:41:39.719Z,3.46
2018-08-03T12:47:34.745Z,3.53
2018-08-03T12:53:29.761Z,3.17
2018-08-03T12:59:24.811Z,3.43
2018-08-03T13:05:19.764Z,3.17
2018-08-03T13:11:14.749Z,3
2018-08-03T13:17:09.798Z,3.19
2018-08-03T13:23:04.792Z,2.85
2018-08-03T13:28:59.787Z,2.63
2018-08-03T13:34:54.773Z,2.96
2018-08-03T13:40:49.769Z,2.41
2018-08-03T13:46:44.737Z,2.71
2018-08-03T13:52:39.767Z,2.72
2018-08-03T13:58:34.814Z,3.06
2018-08-03T14:04:29.767Z,2.58
2018-08-03T14:10:24.788Z,3.07
2018-08-03T14:16:19.765Z,3.27
2018-08-03T14:22:14.893Z,2.9
2018-08-03T14:28:09.776Z,3.1
2018-08-03T14:34:04.824Z,2.74
2018-08-03T14:39:59.800Z,4.11
2018-08-03T14:45:54.796Z,2.97
2018-08-03T14:51:49.807Z,3
2018-08-03T14:57:44.829Z,2.97
2018-08-03T15:03:39.835Z,3.07
2018-08-03T15:09:34.836Z,3.45
2018-08-03T15:15:29.840Z,3.13
2018-08-03T15:21:24.829Z,3.22
2018-08-03T15:27:19.917Z,3.55
2018-08-03T15:33:14.895Z,3.17
2018-08-03T15:39:09.854Z,3.46
2018-08-03T15:45:04.869Z,3.36
2018-08-03T15:50:59.883Z,3.49
2018-08-03T15:56:54.857Z,3.39
2018-08-03T16:02:50.009Z,3.67
2018-08-03T16:08:44.901Z,3.17
2018-08-03T16:14:40.031Z,3.36
2018-08-03T16:20:34.973Z,3.32
2018-08-03T16:26:29.932Z,3.67
2018-08-03T16:32:24.937Z,3.42
2018-08-03T16:38:19.945Z,3.64
2018-08-03T16:44:14.951Z,3.3
2018-08-03T16:50:09.955Z,3.76
2018-08-03T16:56:04.929Z,4.73
2018-08-03T17:01:59.946Z,4.27
2018-08-03T17:07:54.980Z,3.93
2018-08-03T17:13:50.001Z,4.46
2018-08-03T17:19:44.987Z,4.41
2018-08-03T17:25:39.961Z,5.32
2018-08-03T17:31:35.073Z,5.4
2018-08-03T17:37:29.997Z,4.89
2018-08-03T17:43:24.979Z,5.19
2018-08-03T17:49:20.083Z,5.45
2018-08-03T17:55:15.032Z,6.06
2018-08-03T18:01:10.034Z,5.97
2018-08-03T18:07:05.044Z,6.13
2018-08-03T18:13:00.029Z,6.8
2018-08-03T18:18:55.073Z,6.59
2018-08-03T18:24:50.090Z,6.15
2018-08-03T18:30:45.014Z,6.47
2018-08-03T18:36:40.011Z,6.97
2018-08-03T18:42:35.037Z,7.09
2018-08-03T18:48:30.012Z,6.74
2018-08-03T18:54:25.016Z,7.31
2018-08-03T19:00:20.036Z,7.79
2018-08-03T19:06:15.035Z,7.4
2018-08-03T19:12:10.092Z,7.67
2018-08-03T19:18:05.093Z,7.75
2018-08-03T19:24:00.047Z,7.83
2018-08-03T19:29:55.103Z,7.77
2018-08-03T19:35:50.083Z,7.5
2018-08-03T19:41:45.109Z,7.61
2018-08-03T19:47:40.095Z,7.73
2018-08-03T19:53:35.165Z,8.3
2018-08-03T19:59:30.092Z,8.15
2018-08-03T20:05:25.091Z,8.63
2018-08-03T20:11:20.100Z,8.2
2018-08-03T20:17:15.152Z,8.35
2018-08-03T20:23:10.172Z,8.58
2018-08-03T20:29:05.237Z,9.06
2018-08-03T20:35:00.111Z,9.33
2018-08-03T20:40:55.126Z,8.98
2018-08-03T20:46:50.159Z,8.54
2018-08-03T20:52:45.131Z,9.6
2018-08-03T20:58:40.147Z,8.66
2018-08-03T21:04:35.401Z,8.87
2018-08-03T21:10:30.153Z,8.93
2018-08-03T21:16:25.193Z,8.89
2018-08-03T21:22:20.170Z,8.4
2018-08-03T21:28:15.166Z,8.75
2018-08-03T21:34:10.185Z,9.17
2018-08-03T21:40:05.161Z,9.5
2018-08-03T21:46:00.197Z,8.64
2018-08-03T21:51:55.229Z,8.78
2018-08-03T21:57:50.231Z,8.73
2018-08-03T22:03:45.263Z,8.85
2018-08-03T22:09:40.186Z,9.78
2018-08-03T22:15:35.245Z,8.84
2018-08-03T22:21:30.191Z,9.11
2018-08-03T22:27:25.226Z,8.9
2018-08-03T22:33:20.263Z,8.3
2018-08-03T22:39:15.225Z,7.51
2018-08-03T22:45:10.248Z,7.9
2018-08-03T22:51:05.220Z,8.62
2018-08-03T22:57:00.240Z,8.93
2018-08-03T23:02:55.258Z,9.3
2018-08-03T23:08:50.296Z,9.99
2018-08-03T23:14:45.321Z,9.61
2018-08-03T23:20:40.272Z,10.66
2018-08-03T23:26:35.271Z,8.91
2018-08-03T23:32:30.269Z,8.63
2018-08-03T23:38:25.345Z,9.81
2018-08-03T23:44:20.307Z,9.8
2018-08-03T23:50:15.318Z,9.42
2018-08-03T23:56:10.295Z,9.07
